sensor_id;sensor_type;location;lat;lon;timestamp;pressure;altitude;pressure_sealevel;temperature;humidity
76794;BME280;65745;50.278;18.192;2023-03-26T00:02:24;98751.30;;;7.76;68.48
76794;BME280;65745;50.278;18.192;2023-03-26T00:04:59;98742.95;;;7.81;68.72
76794;BME280;65745;50.278;18.192;2023-03-26T00:07:32;98741.89;;;7.79;68.64
76794;BME280;65745;50.278;18.192;2023-03-26T00:10:05;98742.08;;;7.79;68.34
76794;BME280;65745;50.278;18.192;2023-03-26T00:12:38;98744.49;;;7.81;67.69
76794;BME280;65745;50.278;18.192;2023-03-26T00:15:11;98742.65;;;7.84;67.46
76794;BME280;65745;50.278;18.192;2023-03-26T00:17:43;98743.15;;;7.84;67.21
76794;BME280;65745;50.278;18.192;2023-03-26T00:20:16;98743.64;;;7.80;67.55
76794;BME280;65745;50.278;18.192;2023-03-26T00:22:48;98744.27;;;7.77;67.20
76794;BME280;65745;50.278;18.192;2023-03-26T00:25:21;98740.62;;;7.72;67.83
76794;BME280;65745;50.278;18.192;2023-03-26T00:27:54;98734.35;;;7.65;68.33
76794;BME280;65745;50.278;18.192;2023-03-26T00:30:27;98730.86;;;7.59;69.21
76794;BME280;65745;50.278;18.192;2023-03-26T00:32:59;98727.38;;;7.56;68.89
76794;BME280;65745;50.278;18.192;2023-03-26T00:35:33;98724.76;;;7.51;68.98
76794;BME280;65745;50.278;18.192;2023-03-26T00:38:06;98719.50;;;7.42;69.08
76794;BME280;65745;50.278;18.192;2023-03-26T00:40:38;98716.67;;;7.36;68.83
76794;BME280;65745;50.278;18.192;2023-03-26T00:43:14;98714.05;;;7.33;68.65
76794;BME280;65745;50.278;18.192;2023-03-26T00:45:51;98706.96;;;7.28;68.80
76794;BME280;65745;50.278;18.192;2023-03-26T00:48:24;98707.59;;;7.23;69.24
76794;BME280;65745;50.278;18.192;2023-03-26T00:51:15;98707.39;;;7.20;69.59
76794;BME280;65745;50.278;18.192;2023-03-26T00:53:49;98706.20;;;7.22;69.75
76794;BME280;65745;50.278;18.192;2023-03-26T00:56:21;98707.95;;;7.23;69.71
76794;BME280;65745;50.278;18.192;2023-03-26T00:58:54;98708.66;;;7.27;69.38
76794;BME280;65745;50.278;18.192;2023-03-26T01:01:28;98707.11;;;7.26;69.82
76794;BME280;65745;50.278;18.192;2023-03-26T01:04:23;98713.43;;;7.24;69.31
76794;BME280;65745;50.278;18.192;2023-03-26T01:07:02;98709.81;;;7.22;69.78
76794;BME280;65745;50.278;18.192;2023-03-26T01:09:38;98717.67;;;7.22;70.43
76794;BME280;65745;50.278;18.192;2023-03-26T01:12:15;98714.08;;;7.21;70.59
76794;BME280;65745;50.278;18.192;2023-03-26T01:14:50;98703.27;;;7.21;70.50
76794;BME280;65745;50.278;18.192;2023-03-26T01:17:24;98707.59;;;7.23;70.59
76794;BME280;65745;50.278;18.192;2023-03-26T01:20:09;98706.73;;;7.23;70.24
76794;BME280;65745;50.278;18.192;2023-03-26T01:22:47;98709.80;;;7.22;70.62
76794;BME280;65745;50.278;18.192;2023-03-26T01:25:23;98701.55;;;7.21;70.30
76794;BME280;65745;50.278;18.192;2023-03-26T01:27:57;98704.85;;;7.23;70.49
76794;BME280;65745;50.278;18.192;2023-03-26T01:30:36;98701.64;;;7.27;70.63
76794;BME280;65745;50.278;18.192;2023-03-26T01:33:16;98700.37;;;7.34;70.60
76794;BME280;65745;50.278;18.192;2023-03-26T01:35:56;98697.05;;;7.40;70.61
76794;BME280;65745;50.278;18.192;2023-03-26T01:38:33;98701.71;;;7.44;70.75
76794;BME280;65745;50.278;18.192;2023-03-26T01:41:11;98707.89;;;7.45;70.38
76794;BME280;65745;50.278;18.192;2023-03-26T01:43:48;98706.16;;;7.44;70.31
76794;BME280;65745;50.278;18.192;2023-03-26T01:46:24;98693.63;;;7.41;70.44
76794;BME280;65745;50.278;18.192;2023-03-26T01:48:57;98691.38;;;7.41;70.62
76794;BME280;65745;50.278;18.192;2023-03-26T01:51:31;98695.52;;;7.43;70.93
76794;BME280;65745;50.278;18.192;2023-03-26T01:54:06;98698.63;;;7.44;70.98
76794;BME280;65745;50.278;18.192;2023-03-26T01:56:47;98693.13;;;7.43;71.20
76794;BME280;65745;50.278;18.192;2023-03-26T01:59:37;98689.67;;;7.41;70.83
76794;BME280;65745;50.278;18.192;2023-03-26T02:02:18;98688.30;;;7.40;70.63
76794;BME280;65745;50.278;18.192;2023-03-26T02:04:56;98686.77;;;7.41;70.46
76794;BME280;65745;50.278;18.192;2023-03-26T02:07:33;98673.08;;;7.42;70.54
76794;BME280;65745;50.278;18.192;2023-03-26T02:10:14;98679.60;;;7.44;70.77
76794;BME280;65745;50.278;18.192;2023-03-26T02:12:48;98684.43;;;7.47;70.53
76794;BME280;65745;50.278;18.192;2023-03-26T02:15:22;98677.75;;;7.47;70.55
76794;BME280;65745;50.278;18.192;2023-03-26T02:17:54;98681.70;;;7.47;70.64
76794;BME280;65745;50.278;18.192;2023-03-26T02:20:26;98682.39;;;7.48;70.72
76794;BME280;65745;50.278;18.192;2023-03-26T02:23:00;98678.62;;;7.48;70.38
76794;BME280;65745;50.278;18.192;2023-03-26T02:25:32;98689.75;;;7.47;70.74
76794;BME280;65745;50.278;18.192;2023-03-26T02:28:06;98696.77;;;7.47;70.45
76794;BME280;65745;50.278;18.192;2023-03-26T02:30:38;98688.20;;;7.47;70.26
76794;BME280;65745;50.278;18.192;2023-03-26T02:33:11;98689.77;;;7.49;70.23
76794;BME280;65745;50.278;18.192;2023-03-26T02:35:45;98693.88;;;7.49;70.64
76794;BME280;65745;50.278;18.192;2023-03-26T02:38:17;98696.49;;;7.52;70.45
76794;BME280;65745;50.278;18.192;2023-03-26T02:40:49;98693.64;;;7.57;70.22
76794;BME280;65745;50.278;18.192;2023-03-26T02:43:22;98691.27;;;7.59;70.08
76794;BME280;65745;50.278;18.192;2023-03-26T02:45:55;98681.19;;;7.61;69.65
76794;BME280;65745;50.278;18.192;2023-03-26T02:48:46;98680.00;;;7.63;69.29
76794;BME280;65745;50.278;18.192;2023-03-26T02:51:27;98678.83;;;7.64;69.00
76794;BME280;65745;50.278;18.192;2023-03-26T02:54:06;98674.92;;;7.67;68.55
76794;BME280;65745;50.278;18.192;2023-03-26T02:56:44;98671.02;;;7.70;68.76
76794;BME280;65745;50.278;18.192;2023-03-26T02:59:39;98671.19;;;7.72;68.57
76794;BME280;65745;50.278;18.192;2023-03-26T03:02:34;98669.48;;;7.73;68.27
76794;BME280;65745;50.278;18.192;2023-03-26T03:05:34;98666.75;;;7.73;68.08
76794;BME280;65745;50.278;18.192;2023-03-26T03:08:27;98669.13;;;7.70;68.40
76794;BME280;65745;50.278;18.192;2023-03-26T03:11:19;98673.56;;;7.68;69.25
76794;BME280;65745;50.278;18.192;2023-03-26T03:13:54;98673.70;;;7.65;69.68
76794;BME280;65745;50.278;18.192;2023-03-26T03:16:30;98671.59;;;7.61;69.86
76794;BME280;65745;50.278;18.192;2023-03-26T03:19:06;98666.92;;;7.57;69.39
76794;BME280;65745;50.278;18.192;2023-03-26T03:21:41;98670.80;;;7.52;69.44
76794;BME280;65745;50.278;18.192;2023-03-26T03:24:13;98667.27;;;7.44;69.47
76794;BME280;65745;50.278;18.192;2023-03-26T03:26:50;98662.06;;;7.38;69.82
76794;BME280;65745;50.278;18.192;2023-03-26T03:29:39;98664.43;;;7.35;69.70
76794;BME280;65745;50.278;18.192;2023-03-26T03:32:33;98663.05;;;7.35;69.71
76794;BME280;65745;50.278;18.192;2023-03-26T03:35:07;98666.14;;;7.35;69.66
76794;BME280;65745;50.278;18.192;2023-03-26T03:37:40;98674.86;;;7.34;69.45
76794;BME280;65745;50.278;18.192;2023-03-26T03:40:12;98674.31;;;7.32;69.23
76794;BME280;65745;50.278;18.192;2023-03-26T03:42:45;98675.13;;;7.29;69.23
76794;BME280;65745;50.278;18.192;2023-03-26T03:45:23;98675.94;;;7.26;69.60
76794;BME280;65745;50.278;18.192;2023-03-26T03:48:19;98674.23;;;7.26;69.81
76794;BME280;65745;50.278;18.192;2023-03-26T03:50:51;98675.78;;;7.26;69.59
76794;BME280;65745;50.278;18.192;2023-03-26T03:53:34;98679.30;;;7.20;69.72
76794;BME280;65745;50.278;18.192;2023-03-26T03:56:11;98675.98;;;7.16;69.64
76794;BME280;65745;50.278;18.192;2023-03-26T03:59:07;98678.02;;;7.14;69.99
76794;BME280;65745;50.278;18.192;2023-03-26T04:01:40;98681.11;;;7.15;69.85
76794;BME280;65745;50.278;18.192;2023-03-26T04:04:24;98678.28;;;7.20;69.64
76794;BME280;65745;50.278;18.192;2023-03-26T04:07:07;98677.11;;;7.23;69.47
76794;BME280;65745;50.278;18.192;2023-03-26T04:10:03;98678.85;;;7.25;69.29
76794;BME280;65745;50.278;18.192;2023-03-26T04:12:55;98677.46;;;7.24;69.12
76794;BME280;65745;50.278;18.192;2023-03-26T04:15:44;98681.59;;;7.25;69.16
76794;BME280;65745;50.278;18.192;2023-03-26T04:18:17;98679.41;;;7.29;69.45
76794;BME280;65745;50.278;18.192;2023-03-26T04:20:50;98673.42;;;7.31;69.33
76794;BME280;65745;50.278;18.192;2023-03-26T04:23:29;98673.92;;;7.29;68.85
76794;BME280;65745;50.278;18.192;2023-03-26T04:26:16;98676.65;;;7.27;68.83
76794;BME280;65745;50.278;18.192;2023-03-26T04:29:21;98683.09;;;7.22;69.06
76794;BME280;65745;50.278;18.192;2023-03-26T04:31:57;98676.58;;;7.21;68.83
76794;BME280;65745;50.278;18.192;2023-03-26T04:34:36;98670.95;;;7.23;69.45
76794;BME280;65745;50.278;18.192;2023-03-26T04:37:16;98667.36;;;7.23;69.30
76794;BME280;65745;50.278;18.192;2023-03-26T04:40:02;98665.77;;;7.20;69.10
76794;BME280;65745;50.278;18.192;2023-03-26T04:42:58;98671.02;;;7.15;69.11
76794;BME280;65745;50.278;18.192;2023-03-26T04:45:55;98680.33;;;7.08;69.17
76794;BME280;65745;50.278;18.192;2023-03-26T04:48:29;98682.64;;;7.02;69.07
76794;BME280;65745;50.278;18.192;2023-03-26T04:51:01;98687.16;;;6.95;69.31
76794;BME280;65745;50.278;18.192;2023-03-26T04:53:37;98684.54;;;6.92;69.37
76794;BME280;65745;50.278;18.192;2023-03-26T04:56:41;98680.59;;;6.90;69.73
76794;BME280;65745;50.278;18.192;2023-03-26T04:59:27;98679.17;;;6.88;69.89
76794;BME280;65745;50.278;18.192;2023-03-26T05:02:06;98680.83;;;6.84;70.22
76794;BME280;65745;50.278;18.192;2023-03-26T05:04:49;98680.29;;;6.82;69.65
76794;BME280;65745;50.278;18.192;2023-03-26T05:07:22;98679.77;;;6.81;69.45
76794;BME280;65745;50.278;18.192;2023-03-26T05:09:56;98681.09;;;6.79;69.40
76794;BME280;65745;50.278;18.192;2023-03-26T05:12:41;98683.18;;;6.81;69.30
76794;BME280;65745;50.278;18.192;2023-03-26T05:15:20;98682.17;;;6.81;69.81
76794;BME280;65745;50.278;18.192;2023-03-26T05:18:11;98687.70;;;6.85;70.04
76794;BME280;65745;50.278;18.192;2023-03-26T05:20:45;98694.15;;;6.92;70.38
76794;BME280;65745;50.278;18.192;2023-03-26T05:23:17;98694.45;;;7.02;70.25
76794;BME280;65745;50.278;18.192;2023-03-26T05:26:04;98695.23;;;7.09;69.92
76794;BME280;65745;50.278;18.192;2023-03-26T05:28:38;98696.63;;;7.10;69.46
76794;BME280;65745;50.278;18.192;2023-03-26T05:31:24;98691.80;;;7.08;69.79
76794;BME280;65745;50.278;18.192;2023-03-26T05:33:58;98690.75;;;7.07;69.88
76794;BME280;65745;50.278;18.192;2023-03-26T05:36:31;98690.42;;;7.08;70.31
76794;BME280;65745;50.278;18.192;2023-03-26T05:39:34;98686.73;;;7.12;70.21
76794;BME280;65745;50.278;18.192;2023-03-26T05:42:25;98682.51;;;7.17;69.73
76794;BME280;65745;50.278;18.192;2023-03-26T05:45:14;98679.67;;;7.22;69.83
76794;BME280;65745;50.278;18.192;2023-03-26T05:47:46;98675.77;;;7.25;69.82
76794;BME280;65745;50.278;18.192;2023-03-26T05:50:21;98670.71;;;7.31;69.48
76794;BME280;65745;50.278;18.192;2023-03-26T05:52:55;98671.32;;;7.39;69.78
76794;BME280;65745;50.278;18.192;2023-03-26T05:56:06;98678.77;;;7.47;70.31
76794;BME280;65745;50.278;18.192;2023-03-26T05:58:57;98677.64;;;7.52;69.62
76794;BME280;65745;50.278;18.192;2023-03-26T06:01:48;98682.81;;;7.54;69.24
76794;BME280;65745;50.278;18.192;2023-03-26T06:04:39;98681.79;;;7.54;69.39
76794;BME280;65745;50.278;18.192;2023-03-26T06:07:47;98681.27;;;7.53;69.18
76794;BME280;65745;50.278;18.192;2023-03-26T06:10:22;98684.88;;;7.54;68.88
76794;BME280;65745;50.278;18.192;2023-03-26T06:12:54;98687.27;;;7.54;68.92
76794;BME280;65745;50.278;18.192;2023-03-26T06:15:26;98687.99;;;7.57;69.17
76794;BME280;65745;50.278;18.192;2023-03-26T06:18:04;98689.77;;;7.62;69.13
76794;BME280;65745;50.278;18.192;2023-03-26T06:20:55;98697.36;;;7.66;69.44
76794;BME280;65745;50.278;18.192;2023-03-26T06:23:50;98691.23;;;7.70;69.20
76794;BME280;65745;50.278;18.192;2023-03-26T06:26:51;98694.69;;;7.73;69.05
76794;BME280;65745;50.278;18.192;2023-03-26T06:29:23;98696.91;;;7.71;68.96
76794;BME280;65745;50.278;18.192;2023-03-26T06:31:58;98702.73;;;7.73;68.89
76794;BME280;65745;50.278;18.192;2023-03-26T06:34:53;98706.58;;;7.77;68.65
76794;BME280;65745;50.278;18.192;2023-03-26T06:37:25;98703.73;;;7.84;68.69
76794;BME280;65745;50.278;18.192;2023-03-26T06:40:04;98706.04;;;7.90;68.46
76794;BME280;65745;50.278;18.192;2023-03-26T06:42:55;98708.63;;;7.92;68.41
76794;BME280;65745;50.278;18.192;2023-03-26T06:46:03;98708.52;;;7.97;67.96
76794;BME280;65745;50.278;18.192;2023-03-26T06:49:05;98707.52;;;8.00;68.03
76794;BME280;65745;50.278;18.192;2023-03-26T06:51:56;98707.06;;;8.06;67.87
76794;BME280;65745;50.278;18.192;2023-03-26T06:54:48;98707.66;;;8.15;68.00
76794;BME280;65745;50.278;18.192;2023-03-26T06:57:50;98711.39;;;8.26;68.28
76794;BME280;65745;50.278;18.192;2023-03-26T07:00:45;98712.69;;;8.34;67.99
76794;BME280;65745;50.278;18.192;2023-03-26T07:03:46;98710.05;;;8.43;67.72
76794;BME280;65745;50.278;18.192;2023-03-26T07:06:42;98707.36;;;8.50;67.26
76794;BME280;65745;50.278;18.192;2023-03-26T07:09:32;98708.77;;;8.55;67.15
76794;BME280;65745;50.278;18.192;2023-03-26T07:12:23;98706.41;;;8.60;67.07
76794;BME280;65745;50.278;18.192;2023-03-26T07:15:29;98710.92;;;8.67;66.65
76794;BME280;65745;50.278;18.192;2023-03-26T07:18:28;98721.11;;;8.74;66.66
76794;BME280;65745;50.278;18.192;2023-03-26T07:21:02;98715.50;;;8.80;66.41
76794;BME280;65745;50.278;18.192;2023-03-26T07:23:36;98722.42;;;8.86;66.04
76794;BME280;65745;50.278;18.192;2023-03-26T07:26:33;98718.98;;;8.87;65.65
76794;BME280;65745;50.278;18.192;2023-03-26T07:29:19;98716.41;;;8.88;65.72
76794;BME280;65745;50.278;18.192;2023-03-26T07:32:18;98715.95;;;8.93;65.49
76794;BME280;65745;50.278;18.192;2023-03-26T07:35:15;98717.20;;;9.01;65.15
76794;BME280;65745;50.278;18.192;2023-03-26T07:38:25;98717.42;;;9.07;65.10
76794;BME280;65745;50.278;18.192;2023-03-26T07:41:27;98714.58;;;9.21;65.16
76794;BME280;65745;50.278;18.192;2023-03-26T07:44:30;98711.56;;;9.35;65.24
76794;BME280;65745;50.278;18.192;2023-03-26T07:47:28;98713.54;;;9.51;64.98
76794;BME280;65745;50.278;18.192;2023-03-26T07:50:16;98713.93;;;9.59;64.82
76794;BME280;65745;50.278;18.192;2023-03-26T07:53:03;98701.24;;;9.69;63.99
76794;BME280;65745;50.278;18.192;2023-03-26T07:55:51;98702.46;;;9.72;64.14
76794;BME280;65745;50.278;18.192;2023-03-26T07:58:58;98698.68;;;9.74;64.25
76794;BME280;65745;50.278;18.192;2023-03-26T08:02:11;98698.34;;;9.72;64.73
76794;BME280;65745;50.278;18.192;2023-03-26T08:04:59;98698.15;;;9.69;63.92
76794;BME280;65745;50.278;18.192;2023-03-26T08:08:05;98694.17;;;9.63;64.02
76794;BME280;65745;50.278;18.192;2023-03-26T08:10:58;98692.61;;;9.59;64.45
76794;BME280;65745;50.278;18.192;2023-03-26T08:13:55;98694.84;;;9.60;64.22
76794;BME280;65745;50.278;18.192;2023-03-26T08:16:37;98693.14;;;9.65;64.12
76794;BME280;65745;50.278;18.192;2023-03-26T08:19:28;98688.54;;;9.70;64.48
76794;BME280;65745;50.278;18.192;2023-03-26T08:22:09;98686.31;;;9.76;64.49
76794;BME280;65745;50.278;18.192;2023-03-26T08:24:50;98684.60;;;9.80;64.25
76794;BME280;65745;50.278;18.192;2023-03-26T08:27:35;98686.16;;;9.82;63.95
76794;BME280;65745;50.278;18.192;2023-03-26T08:30:15;98689.08;;;9.79;63.57
76794;BME280;65745;50.278;18.192;2023-03-26T08:32:53;98687.52;;;9.73;63.85
76794;BME280;65745;50.278;18.192;2023-03-26T08:35:27;98683.04;;;9.72;63.69
76794;BME280;65745;50.278;18.192;2023-03-26T08:38:00;98678.40;;;9.73;63.30
76794;BME280;65745;50.278;18.192;2023-03-26T08:40:59;98684.05;;;9.69;63.92
76794;BME280;65745;50.278;18.192;2023-03-26T08:46:58;98699.61;;;9.49;64.83
76794;BME280;65745;50.278;18.192;2023-03-26T08:49:55;98701.60;;;9.35;66.14
76794;BME280;65745;50.278;18.192;2023-03-26T08:52:54;98712.02;;;9.22;66.83
76794;BME280;65745;50.278;18.192;2023-03-26T08:55:52;98707.81;;;9.12;68.15
76794;BME280;65745;50.278;18.192;2023-03-26T08:58:53;98700.93;;;9.09;68.29
76794;BME280;65745;50.278;18.192;2023-03-26T09:01:57;98700.74;;;9.08;68.55
76794;BME280;65745;50.278;18.192;2023-03-26T09:10:57;98692.20;;;9.46;68.70
76794;BME280;65745;50.278;18.192;2023-03-26T09:14:09;98684.37;;;9.60;68.41
76794;BME280;65745;50.278;18.192;2023-03-26T09:20:27;98676.21;;;9.88;67.39
76794;BME280;65745;50.278;18.192;2023-03-26T09:23:28;98672.09;;;9.96;67.27
76794;BME280;65745;50.278;18.192;2023-03-26T09:26:25;98670.23;;;10.05;66.85
76794;BME280;65745;50.278;18.192;2023-03-26T09:32:08;98679.36;;;10.12;67.36
76794;BME280;65745;50.278;18.192;2023-03-26T09:35:00;98674.37;;;10.11;67.36
76794;BME280;65745;50.278;18.192;2023-03-26T09:37:57;98669.38;;;10.09;66.83
76794;BME280;65745;50.278;18.192;2023-03-26T09:40:42;98671.95;;;10.08;66.44
76794;BME280;65745;50.278;18.192;2023-03-26T09:43:44;98675.58;;;10.12;65.95
76794;BME280;65745;50.278;18.192;2023-03-26T09:46:30;98678.86;;;10.15;65.93
76794;BME280;65745;50.278;18.192;2023-03-26T09:49:30;98676.62;;;10.14;65.61
76794;BME280;65745;50.278;18.192;2023-03-26T09:52:20;98674.73;;;10.14;65.86
76794;BME280;65745;50.278;18.192;2023-03-26T10:01:07;98668.02;;;10.13;65.94
76794;BME280;65745;50.278;18.192;2023-03-26T10:03:55;98665.80;;;10.15;65.30
76794;BME280;65745;50.278;18.192;2023-03-26T10:06:47;98662.86;;;10.14;65.44
76794;BME280;65745;50.278;18.192;2023-03-26T10:09:47;98660.09;;;10.09;65.64
76794;BME280;65745;50.278;18.192;2023-03-26T10:12:28;98658.70;;;10.06;65.26
76794;BME280;65745;50.278;18.192;2023-03-26T10:15:15;98654.05;;;10.03;65.10
76794;BME280;65745;50.278;18.192;2023-03-26T10:18:05;98660.59;;;10.01;64.63
76794;BME280;65745;50.278;18.192;2023-03-26T10:21:05;98658.69;;;9.98;64.38
76794;BME280;65745;50.278;18.192;2023-03-26T10:26:49;98659.90;;;9.99;64.53
76794;BME280;65745;50.278;18.192;2023-03-26T10:30:05;98660.77;;;10.03;64.85
76794;BME280;65745;50.278;18.192;2023-03-26T10:32:46;98660.94;;;10.07;65.89
76794;BME280;65745;50.278;18.192;2023-03-26T10:35:31;98662.32;;;10.12;66.33
76794;BME280;65745;50.278;18.192;2023-03-26T10:38:15;98653.55;;;10.13;66.49
76794;BME280;65745;50.278;18.192;2023-03-26T10:40:57;98647.58;;;10.22;66.68
76794;BME280;65745;50.278;18.192;2023-03-26T10:44:07;98641.05;;;10.35;67.00
76794;BME280;65745;50.278;18.192;2023-03-26T10:47:05;98635.18;;;10.57;66.48
76794;BME280;65745;50.278;18.192;2023-03-26T10:52:55;98621.69;;;10.98;65.03
76794;BME280;65745;50.278;18.192;2023-03-26T10:55:33;98613.91;;;11.11;64.79
76794;BME280;65745;50.278;18.192;2023-03-26T10:58:14;98606.45;;;11.26;64.87
76794;BME280;65745;50.278;18.192;2023-03-26T11:00:55;98603.61;;;11.44;64.19
76794;BME280;65745;50.278;18.192;2023-03-26T11:03:47;98603.39;;;11.55;63.37
76794;BME280;65745;50.278;18.192;2023-03-26T11:06:30;98604.02;;;11.68;63.21
76794;BME280;65745;50.278;18.192;2023-03-26T11:09:20;98599.85;;;11.77;62.62
76794;BME280;65745;50.278;18.192;2023-03-26T11:12:00;98593.77;;;11.85;62.07
76794;BME280;65745;50.278;18.192;2023-03-26T11:15:04;98593.54;;;11.94;61.54
76794;BME280;65745;50.278;18.192;2023-03-26T11:17:47;98591.42;;;11.98;60.08
76794;BME280;65745;50.278;18.192;2023-03-26T11:20:28;98588.66;;;12.02;60.28
76794;BME280;65745;50.278;18.192;2023-03-26T11:23:13;98587.89;;;12.09;60.06
76794;BME280;65745;50.278;18.192;2023-03-26T11:26:06;98585.10;;;12.14;59.14
76794;BME280;65745;50.278;18.192;2023-03-26T11:32:04;98581.38;;;12.05;58.33
76794;BME280;65745;50.278;18.192;2023-03-26T11:34:39;98575.93;;;11.94;57.74
76794;BME280;65745;50.278;18.192;2023-03-26T11:37:17;98579.13;;;11.79;57.77
76794;BME280;65745;50.278;18.192;2023-03-26T11:39:53;98578.14;;;11.66;57.87
76794;BME280;65745;50.278;18.192;2023-03-26T11:42:28;98576.48;;;11.56;57.83
76794;BME280;65745;50.278;18.192;2023-03-26T11:45:04;98574.64;;;11.49;58.08
76794;BME280;65745;50.278;18.192;2023-03-26T11:47:42;98570.15;;;11.47;58.68
76794;BME280;65745;50.278;18.192;2023-03-26T11:50:21;98567.38;;;11.48;58.83
76794;BME280;65745;50.278;18.192;2023-03-26T11:52:57;98564.59;;;11.55;58.82
76794;BME280;65745;50.278;18.192;2023-03-26T11:55:31;98565.25;;;11.59;57.48
76794;BME280;65745;50.278;18.192;2023-03-26T11:58:11;98552.34;;;11.56;57.32
76794;BME280;65745;50.278;18.192;2023-03-26T12:00:48;98547.68;;;11.56;57.05
76794;BME280;65745;50.278;18.192;2023-03-26T12:03:22;98544.39;;;11.59;56.63
76794;BME280;65745;50.278;18.192;2023-03-26T12:05:58;98535.08;;;11.58;57.17
76794;BME280;65745;50.278;18.192;2023-03-26T12:08:38;98536.45;;;11.61;57.32
76794;BME280;65745;50.278;18.192;2023-03-26T12:11:13;98529.33;;;11.68;57.39
76794;BME280;65745;50.278;18.192;2023-03-26T12:13:51;98528.77;;;11.79;56.57
76794;BME280;65745;50.278;18.192;2023-03-26T12:16:26;98519.88;;;12.63;54.99
76794;BME280;65745;50.278;18.192;2023-03-26T12:19:02;98519.21;;;14.36;52.21
76794;BME280;65745;50.278;18.192;2023-03-26T12:21:45;98514.42;;;14.44;52.01
76794;BME280;65745;50.278;18.192;2023-03-26T12:24:31;98512.33;;;14.03;51.78
76794;BME280;65745;50.278;18.192;2023-03-26T12:27:23;98512.87;;;13.57;52.05
76794;BME280;65745;50.278;18.192;2023-03-26T12:30:10;98506.59;;;13.23;52.42
76794;BME280;65745;50.278;18.192;2023-03-26T12:32:43;98508.55;;;13.03;52.53
76794;BME280;65745;50.278;18.192;2023-03-26T12:35:18;98506.64;;;12.90;52.49
76794;BME280;65745;50.278;18.192;2023-03-26T12:38:12;98503.23;;;12.86;53.54
76794;BME280;65745;50.278;18.192;2023-03-26T12:40:45;98500.10;;;13.01;52.55
76794;BME280;65745;50.278;18.192;2023-03-26T12:43:29;98495.64;;;13.14;52.73
76794;BME280;65745;50.278;18.192;2023-03-26T12:46:26;98491.20;;;13.60;51.82
76794;BME280;65745;50.278;18.192;2023-03-26T12:49:19;98483.89;;;14.05;51.37
76794;BME280;65745;50.278;18.192;2023-03-26T12:52:03;98482.27;;;14.10;50.76
76794;BME280;65745;50.278;18.192;2023-03-26T12:54:45;98471.77;;;14.25;50.93
76794;BME280;65745;50.278;18.192;2023-03-26T12:57:22;98465.14;;;14.48;50.06
76794;BME280;65745;50.278;18.192;2023-03-26T13:00:05;98464.69;;;14.72;49.35
76794;BME280;65745;50.278;18.192;2023-03-26T13:02:58;98458.64;;;15.44;48.41
76794;BME280;65745;50.278;18.192;2023-03-26T13:05:46;98449.42;;;15.60;48.86
76794;BME280;65745;50.278;18.192;2023-03-26T13:08:43;98440.52;;;16.99;47.97
76794;BME280;65745;50.278;18.192;2023-03-26T13:11:23;98437.13;;;17.97;45.94
76794;BME280;65745;50.278;18.192;2023-03-26T13:14:09;98437.13;;;17.59;46.46
76794;BME280;65745;50.278;18.192;2023-03-26T13:16:49;98437.38;;;17.06;46.82
76794;BME280;65745;50.278;18.192;2023-03-26T13:19:29;98438.52;;;16.60;48.23
76794;BME280;65745;50.278;18.192;2023-03-26T13:22:14;98436.18;;;16.24;49.26
76794;BME280;65745;50.278;18.192;2023-03-26T13:24:56;98435.16;;;15.96;49.91
76794;BME280;65745;50.278;18.192;2023-03-26T13:27:39;98436.66;;;15.78;50.02
76794;BME280;65745;50.278;18.192;2023-03-26T13:30:22;98430.78;;;15.70;50.53
76794;BME280;65745;50.278;18.192;2023-03-26T13:33:18;98429.76;;;15.70;50.35
76794;BME280;65745;50.278;18.192;2023-03-26T13:35:57;98423.85;;;15.84;50.60
76794;BME280;65745;50.278;18.192;2023-03-26T13:39:06;98420.39;;;15.97;50.91
76794;BME280;65745;50.278;18.192;2023-03-26T13:41:53;98420.65;;;15.93;50.65
76794;BME280;65745;50.278;18.192;2023-03-26T13:44:34;98420.77;;;15.83;50.87
76794;BME280;65745;50.278;18.192;2023-03-26T13:47:12;98416.88;;;15.71;50.45
76794;BME280;65745;50.278;18.192;2023-03-26T13:49:47;98415.42;;;15.81;50.43
76794;BME280;65745;50.278;18.192;2023-03-26T13:52:25;98415.60;;;15.87;50.41
76794;BME280;65745;50.278;18.192;2023-03-26T13:55:06;98415.45;;;16.57;50.48
76794;BME280;65745;50.278;18.192;2023-03-26T13:57:52;98406.17;;;17.64;47.73
76794;BME280;65745;50.278;18.192;2023-03-26T14:00:31;98404.63;;;17.08;47.31
76794;BME280;65745;50.278;18.192;2023-03-26T14:03:15;98408.80;;;16.72;48.89
76794;BME280;65745;50.278;18.192;2023-03-26T14:05:53;98405.98;;;16.30;48.28
76794;BME280;65745;50.278;18.192;2023-03-26T14:08:30;98404.60;;;15.89;48.94
76794;BME280;65745;50.278;18.192;2023-03-26T14:11:09;98406.45;;;15.41;48.65
76794;BME280;65745;50.278;18.192;2023-03-26T14:13:48;98404.56;;;15.10;49.59
76794;BME280;65745;50.278;18.192;2023-03-26T14:16:26;98398.50;;;14.87;50.21
76794;BME280;65745;50.278;18.192;2023-03-26T14:19:10;98396.13;;;14.68;50.77
76794;BME280;65745;50.278;18.192;2023-03-26T14:21:56;98395.56;;;14.44;50.04
76794;BME280;65745;50.278;18.192;2023-03-26T14:24:47;98390.52;;;14.26;51.03
76794;BME280;65745;50.278;18.192;2023-03-26T14:27:39;98383.73;;;14.10;51.68
76794;BME280;65745;50.278;18.192;2023-03-26T14:30:44;98379.13;;;13.97;51.79
76794;BME280;65745;50.278;18.192;2023-03-26T14:33:35;98376.05;;;13.94;52.24
76794;BME280;65745;50.278;18.192;2023-03-26T14:36:24;98371.65;;;13.89;52.41
76794;BME280;65745;50.278;18.192;2023-03-26T14:39:25;98373.70;;;13.90;52.03
76794;BME280;65745;50.278;18.192;2023-03-26T14:42:10;98371.14;;;13.90;52.61
76794;BME280;65745;50.278;18.192;2023-03-26T14:48:18;98367.89;;;13.87;52.58
76794;BME280;65745;50.278;18.192;2023-03-26T14:51:04;98370.18;;;13.84;53.27
76794;BME280;65745;50.278;18.192;2023-03-26T14:53:44;98371.48;;;13.80;53.95
76794;BME280;65745;50.278;18.192;2023-03-26T14:56:46;98369.13;;;13.75;53.51
76794;BME280;65745;50.278;18.192;2023-03-26T15:03:18;98359.17;;;13.61;54.53
76794;BME280;65745;50.278;18.192;2023-03-26T15:06:18;98355.20;;;13.51;54.99